createdAt,value
2018-07-10T00:00:44.762Z,16.85
2018-07-10T00:04:29.591Z,16.83
2018-07-10T00:07:44.308Z,16.82
2018-07-10T00:11:30.690Z,16.83
2018-07-10T00:14:01.217Z,16.83
2018-07-10T00:16:31.991Z,16.84
2018-07-10T00:19:02.013Z,16.88
2018-07-10T00:21:32.672Z,16.81
2018-07-10T00:24:04.032Z,16.76
2018-07-10T00:26:34.426Z,16.79
2018-07-10T00:29:05.042Z,16.74
2018-07-10T00:31:35.130Z,16.72
2018-07-10T00:34:06.061Z,16.65
2018-07-10T00:36:36.916Z,16.58
2018-07-10T00:39:09.884Z,16.58
2018-07-10T00:41:41.896Z,16.55
2018-07-10T00:44:12.859Z,16.51
2018-07-10T00:46:43.442Z,16.44
2018-07-10T00:49:14.099Z,16.33
2018-07-10T00:51:44.781Z,16.29
2018-07-10T00:54:15.699Z,16.24
2018-07-10T00:56:46.234Z,16.18
2018-07-10T00:59:17.246Z,16.13
2018-07-10T01:01:48.985Z,16.14
2018-07-10T01:04:19.748Z,16.12
2018-07-10T01:06:50.362Z,16.04
2018-07-10T01:09:20.992Z,15.95
2018-07-10T01:11:51.584Z,15.89
2018-07-10T01:14:22.253Z,15.80
2018-07-10T01:16:52.727Z,15.71
2018-07-10T01:19:23.494Z,15.69
2018-07-10T01:21:55.037Z,15.70
2018-07-10T01:24:25.737Z,15.71
2018-07-10T01:26:56.333Z,15.71
2018-07-10T01:29:31.773Z,15.74
2018-07-10T01:32:02.491Z,15.80
2018-07-10T01:34:33.169Z,15.82
2018-07-10T01:37:04.683Z,15.82
2018-07-10T01:39:36.015Z,15.80
2018-07-10T01:42:06.630Z,15.69
2018-07-10T01:44:37.296Z,15.63
2018-07-10T01:47:07.833Z,15.62
2018-07-10T01:49:38.540Z,15.59
2018-07-10T01:52:10.445Z,15.59
2018-07-10T01:54:40.992Z,15.48
2018-07-10T01:57:11.419Z,15.38
2018-07-10T01:59:42.271Z,15.38
2018-07-10T02:02:12.680Z,15.24
2018-07-10T02:04:43.468Z,15.15
2018-07-10T02:07:14.100Z,15.11
2018-07-10T02:09:45.484Z,15.07
2018-07-10T02:12:17.388Z,15.05
2018-07-10T02:14:47.626Z,15.08
2018-07-10T02:17:18.342Z,15.08
2018-07-10T02:19:49.242Z,15.13
2018-07-10T02:22:19.492Z,15.13
2018-07-10T02:24:50.913Z,15.11
2018-07-10T02:27:21.857Z,15.07
2018-07-10T02:29:52.723Z,15.03
2018-07-10T02:32:23.646Z,15.02
2018-07-10T02:34:54.354Z,14.96
2018-07-10T02:37:25.192Z,14.93
2018-07-10T02:39:55.828Z,14.82
2018-07-10T02:42:27.531Z,14.73
2018-07-10T02:44:58.090Z,14.64
2018-07-10T02:47:32.130Z,14.60
2018-07-10T02:50:02.845Z,14.62
2018-07-10T02:52:41.130Z,14.75
2018-07-10T02:55:11.862Z,14.80
2018-07-10T02:57:42.463Z,14.89
2018-07-10T03:00:13.109Z,14.91
2018-07-10T03:02:44.815Z,14.89
2018-07-10T03:05:15.709Z,14.76
2018-07-10T03:07:46.362Z,14.67
2018-07-10T03:10:17.044Z,14.66
2018-07-10T03:12:47.708Z,14.66
2018-07-10T03:15:18.433Z,14.60
2018-07-10T03:17:49.401Z,14.49
2018-07-10T03:20:20.267Z,14.37
2018-07-10T03:22:51.754Z,14.25
2018-07-10T03:25:22.543Z,14.12
2018-07-10T03:27:53.161Z,14.10
2018-07-10T03:30:24.468Z,14.07
2018-07-10T03:32:55.150Z,14.04
2018-07-10T03:35:25.819Z,14.15
2018-07-10T03:37:56.444Z,14.22
2018-07-10T03:40:30.424Z,14.26
2018-07-10T03:43:01.083Z,14.28
2018-07-10T03:45:31.683Z,14.22
2018-07-10T03:48:02.301Z,14.18
2018-07-10T03:50:35.468Z,14.20
2018-07-10T03:53:06.500Z,14.23
2018-07-10T03:55:39.993Z,14.26
2018-07-10T03:58:11.074Z,14.31
2018-07-10T04:00:41.705Z,14.33
2018-07-10T04:03:12.457Z,14.37
2018-07-10T04:05:42.990Z,14.45
2018-07-10T04:08:14.980Z,14.57
2018-07-10T04:10:45.643Z,14.61
2018-07-10T04:13:21.672Z,14.53
2018-07-10T04:15:59.245Z,14.39
2018-07-10T04:18:33.165Z,14.23
2018-07-10T04:21:37.501Z,13.95
2018-07-10T04:24:17.995Z,13.79
2018-07-10T04:27:00.342Z,13.80
2018-07-10T04:29:58.749Z,13.90
2018-07-10T04:32:30.308Z,13.98
2018-07-10T04:35:02.480Z,14.09
2018-07-10T04:37:34.158Z,14.19
2018-07-10T04:40:06.458Z,14.30
2018-07-10T04:42:51.845Z,14.46
2018-07-10T04:45:23.519Z,14.58
2018-07-10T04:47:57.651Z,14.68
2018-07-10T04:50:41.424Z,14.84
2018-07-10T04:53:23.087Z,15.02
2018-07-10T04:55:54.707Z,15.20
2018-07-10T04:58:25.477Z,15.31
2018-07-10T05:01:03.372Z,15.43
2018-07-10T05:03:35.399Z,15.59
2018-07-10T05:06:08.763Z,15.78
2018-07-10T05:08:39.390Z,15.99
2018-07-10T05:11:10.197Z,16.18
2018-07-10T05:13:41.059Z,16.34
2018-07-10T05:16:12.461Z,16.51
2018-07-10T05:18:43.977Z,16.60
2018-07-10T05:21:17.265Z,16.76
2018-07-10T05:23:49.165Z,16.97
2018-07-10T05:26:19.834Z,17.00
2018-07-10T05:28:54.596Z,17.19
2018-07-10T05:31:26.051Z,17.39
2018-07-10T05:33:57.166Z,17.55
2018-07-10T05:36:27.474Z,17.76
2018-07-10T05:39:07.812Z,17.95
2018-07-10T05:41:45.108Z,18.27
2018-07-10T05:44:23.954Z,18.63
2018-07-10T05:47:01.371Z,18.92
2018-07-10T05:49:39.359Z,19.22
2018-07-10T05:52:13.434Z,19.53
2018-07-10T05:54:46.036Z,19.78
2018-07-10T05:57:17.478Z,19.78
2018-07-10T05:59:48.265Z,19.87
2018-07-10T06:02:19.193Z,19.98
2018-07-10T06:04:50.051Z,20.06
2018-07-10T06:07:21.478Z,20.14
2018-07-10T06:09:53.034Z,20.19
2018-07-10T06:12:26.635Z,20.21
2018-07-10T06:14:59.652Z,20.29
2018-07-10T06:17:32.177Z,20.60
2018-07-10T06:20:03.916Z,21.19
2018-07-10T06:22:34.117Z,21.63
2018-07-10T06:25:08.596Z,22.13
2018-07-10T06:27:47.114Z,22.99
2018-07-10T06:30:19.190Z,23.71
2018-07-10T06:33:05.054Z,24.36
2018-07-10T06:35:55.350Z,24.98
2018-07-10T06:38:26.270Z,25.59
2018-07-10T06:40:57.211Z,25.72
2018-07-10T06:43:45.167Z,26.38
2018-07-10T06:46:16.672Z,27.23
2018-07-10T06:48:52.210Z,27.62
2018-07-10T06:51:24.186Z,27.82
2018-07-10T06:54:02.232Z,27.36
2018-07-10T06:56:33.499Z,27.19
2018-07-10T06:59:04.286Z,27.19
2018-07-10T07:01:35.214Z,27.18
2018-07-10T07:04:08.913Z,27.36
2018-07-10T07:06:39.828Z,27.62
2018-07-10T07:09:10.687Z,27.70
2018-07-10T07:11:42.599Z,27.71
2018-07-10T07:14:13.776Z,28.09
2018-07-10T07:16:45.215Z,28.26
2018-07-10T07:19:16.802Z,29.28
2018-07-10T07:22:22.551Z,29.37
2018-07-10T07:24:53.624Z,29.32
2018-07-10T07:27:24.542Z,29.12
2018-07-10T07:29:58.059Z,28.44
2018-07-10T07:32:29.460Z,28.58
2018-07-10T07:35:00.794Z,28.49
2018-07-10T07:37:34.069Z,28.83
2018-07-10T07:40:08.426Z,29.29
2018-07-10T07:42:43.340Z,29.32
2018-07-10T07:45:18.777Z,29.77
2018-07-10T07:47:51.524Z,30.14
2018-07-10T07:50:24.710Z,31.07
2018-07-10T07:52:55.924Z,32.26
2018-07-10T07:55:27.503Z,33.42
2018-07-10T07:57:59.903Z,33.66
2018-07-10T08:00:30.975Z,34.26
2018-07-10T08:03:01.935Z,34.50
2018-07-10T08:05:32.672Z,34.68
2018-07-10T08:08:03.788Z,34.51
2018-07-10T08:10:35.578Z,33.67
2018-07-10T08:13:07.917Z,33.94
2018-07-10T08:15:39.661Z,34.72
2018-07-10T08:18:10.766Z,35.12
2018-07-10T08:20:42.089Z,35.83
2018-07-10T08:23:12.855Z,36.20
2018-07-10T08:25:44.439Z,36.45
2018-07-10T08:28:15.900Z,36.13
2018-07-10T08:30:46.713Z,36.41
2018-07-10T08:33:18.329Z,34.42
2018-07-10T08:35:49.972Z,34.17
2018-07-10T08:38:36.384Z,35.14
2018-07-10T08:41:09.532Z,35.98
2018-07-10T08:43:41.695Z,35.96
2018-07-10T08:46:13.856Z,36.67
2018-07-10T08:48:46.656Z,36.73
2018-07-10T08:51:18.403Z,34.41
2018-07-10T08:53:51.581Z,35.59
2018-07-10T08:56:22.514Z,36.51
2018-07-10T08:58:54.540Z,36.41
2018-07-10T09:01:28.700Z,36.24
2018-07-10T09:04:00.653Z,36.95
2018-07-10T09:06:33.042Z,37.15
2018-07-10T09:09:06.084Z,34.75
2018-07-10T09:11:37.778Z,35.91
2018-07-10T09:14:10.257Z,36.79
2018-07-10T09:16:41.239Z,37.60
2018-07-10T09:19:14.898Z,37.60
2018-07-10T09:22:01.620Z,37.70
2018-07-10T09:24:34.127Z,37.75
2018-07-10T09:27:09.597Z,37.56
2018-07-10T09:29:42.162Z,37.56
2018-07-10T09:32:13.991Z,37.67
2018-07-10T09:34:45.290Z,34.46
2018-07-10T09:37:21.958Z,36.55
2018-07-10T09:39:56.831Z,37.79
2018-07-10T09:42:27.669Z,38.16
2018-07-10T09:44:57.817Z,35.58
2018-07-10T09:47:28.913Z,36.66
2018-07-10T09:49:59.807Z,37.05
2018-07-10T09:52:31.427Z,37.43
2018-07-10T09:55:02.924Z,38.26
2018-07-10T09:57:34.282Z,38.84
2018-07-10T10:00:06.275Z,39.10
2018-07-10T10:02:37.580Z,35.90
2018-07-10T10:05:08.397Z,35.20
2018-07-10T10:07:39.911Z,36.78
2018-07-10T10:10:12.569Z,38.07
2018-07-10T10:12:43.230Z,38.44
2018-07-10T10:15:14.104Z,37.73
2018-07-10T10:17:45.315Z,38.08
2018-07-10T10:20:16.958Z,38.85
2018-07-10T10:22:47.705Z,38.12
2018-07-10T10:25:19.913Z,37.45
2018-07-10T10:30:31.158Z,38.14
2018-07-10T10:33:01.807Z,36.16
2018-07-10T10:35:33.001Z,36.17
2018-07-10T10:38:04.430Z,34.48
2018-07-10T10:40:39.417Z,33.17
2018-07-10T10:43:12.348Z,33.71
2018-07-10T10:45:43.741Z,34.03
2018-07-10T10:48:16.583Z,33.14
2018-07-10T10:50:52.465Z,35.37
2018-07-10T10:53:24.231Z,36.94
2018-07-10T10:55:56.305Z,37.81
2018-07-10T10:58:27.661Z,37.57
2018-07-10T11:00:58.478Z,37.94
2018-07-10T11:03:29.068Z,37.88
2018-07-10T11:05:59.949Z,33.38
2018-07-10T11:08:30.580Z,35.28
2018-07-10T11:11:01.948Z,37.07
2018-07-10T11:13:33.745Z,37.74
2018-07-10T11:16:04.605Z,36.43
2018-07-10T11:18:46.380Z,34.19
2018-07-10T11:21:33.661Z,34.44
2018-07-10T11:24:06.127Z,35.58
2018-07-10T11:47:07.402Z,33.39
2018-07-10T11:49:38.137Z,34.28
2018-07-10T11:52:09.280Z,35.78
2018-07-10T11:54:40.115Z,36.72
2018-07-10T11:57:10.880Z,37.87
2018-07-10T11:59:42.334Z,38.34
2018-07-10T12:02:14.292Z,35.09
2018-07-10T12:04:45.454Z,35.51
2018-07-10T12:07:16.251Z,35.17
2018-07-10T12:10:03.181Z,34.64
2018-07-10T12:12:35.545Z,32.82
2018-07-10T12:15:07.156Z,32.57
2018-07-10T12:17:39.515Z,32.73
2018-07-10T12:20:10.417Z,32.88
2018-07-10T12:22:43.503Z,32.90
2018-07-10T12:25:15.084Z,32.79
2018-07-10T12:27:46.961Z,33.53
2018-07-10T12:30:18.823Z,34.31
2018-07-10T12:32:49.955Z,33.54
2018-07-10T12:35:21.271Z,33.61
2018-07-10T12:37:52.960Z,32.78
2018-07-10T12:40:24.677Z,33.50
2018-07-10T12:42:55.771Z,34.45
2018-07-10T12:45:27.857Z,34.80
2018-07-10T12:48:01.293Z,33.34
2018-07-10T12:50:32.924Z,32.91
2018-07-10T12:53:04.578Z,32.27
2018-07-10T12:55:37.823Z,32.13
2018-07-10T12:58:08.439Z,33.44
2018-07-10T13:00:41.103Z,34.18
2018-07-10T13:03:13.871Z,32.47
2018-07-10T13:05:50.831Z,31.82
2018-07-10T13:08:21.735Z,32.56
2018-07-10T13:10:53.570Z,32.86
2018-07-10T13:13:25.748Z,33.13
2018-07-10T13:15:57.762Z,32.96
2018-07-10T13:18:31.254Z,31.92
2018-07-10T13:21:01.613Z,32.25
2018-07-10T13:23:32.879Z,32.72
2018-07-10T13:26:05.393Z,33.36
2018-07-10T13:28:36.933Z,31.87
2018-07-10T13:31:07.564Z,31.19
2018-07-10T13:33:40.040Z,31.79
2018-07-10T13:36:15.331Z,32.86
2018-07-10T13:38:46.147Z,33.62
2018-07-10T13:41:17.396Z,33.75
2018-07-10T13:43:48.458Z,32.62
2018-07-10T13:46:19.824Z,32.85
2018-07-10T13:48:51.659Z,32.81
2018-07-10T13:51:22.949Z,31.94
2018-07-10T13:53:53.998Z,31.74
2018-07-10T13:56:26.424Z,31.90
2018-07-10T13:58:57.808Z,32.08
2018-07-10T14:01:29.148Z,31.85
2018-07-10T14:04:05.868Z,31.73
2018-07-10T14:06:39.872Z,32.25
2018-07-10T14:09:13.159Z,32.16
2018-07-10T14:11:44.309Z,32.51
2018-07-10T14:14:16.847Z,31.70
2018-07-10T14:16:48.298Z,32.15
2018-07-10T14:19:20.071Z,32.37
2018-07-10T14:21:52.316Z,32.17
2018-07-10T14:24:22.984Z,31.04
2018-07-10T14:26:53.885Z,30.72
2018-07-10T14:29:24.701Z,31.07
2018-07-10T14:31:55.726Z,31.10
2018-07-10T14:34:26.840Z,30.92
2018-07-10T14:36:57.887Z,30.88
2018-07-10T14:39:30.683Z,30.70
2018-07-10T14:42:01.410Z,30.76
2018-07-10T14:44:31.677Z,30.93
2018-07-10T14:47:02.964Z,31.29
2018-07-10T14:49:34.381Z,31.29
2018-07-10T14:52:05.380Z,31.02
2018-07-10T14:54:36.191Z,31.10
2018-07-10T14:57:09.097Z,31.48
2018-07-10T14:59:40.043Z,31.17
2018-07-10T15:02:10.786Z,31.45
2018-07-10T15:04:42.388Z,31.45
2018-07-10T15:07:13.237Z,30.82
2018-07-10T15:09:44.330Z,30.84
2018-07-10T15:12:15.382Z,30.51
2018-07-10T15:14:47.241Z,29.79
2018-07-10T15:17:23.591Z,29.93
2018-07-10T15:19:55.453Z,29.81
2018-07-10T15:22:26.254Z,29.76
2018-07-10T15:24:57.125Z,29.76
2018-07-10T15:27:27.735Z,29.70
2018-07-10T15:29:59.460Z,29.93
2018-07-10T15:32:31.997Z,29.87
2018-07-10T15:35:03.232Z,29.77
2018-07-10T15:37:34.077Z,29.95
2018-07-10T15:40:05.431Z,30.45
2018-07-10T15:42:36.283Z,30.68
2018-07-10T15:45:07.158Z,30.32
2018-07-10T15:47:39.269Z,30.39
2018-07-10T15:50:10.323Z,30.01
2018-07-10T15:52:41.149Z,30.11
2018-07-10T15:55:12.132Z,29.74
2018-07-10T15:57:43.191Z,29.70
2018-07-10T16:00:13.834Z,29.62
2018-07-10T16:02:44.504Z,29.78
2018-07-10T16:05:15.656Z,29.79
2018-07-10T16:07:48.696Z,29.77
2018-07-10T16:10:19.436Z,30.02
2018-07-10T16:12:50.106Z,29.82
2018-07-10T16:15:21.447Z,29.84
2018-07-10T16:17:52.549Z,29.44
2018-07-10T16:20:22.951Z,29.55
2018-07-10T16:22:54.899Z,29.26
2018-07-10T16:25:32.046Z,29.26
2018-07-10T16:28:14.474Z,29.34
2018-07-10T16:30:48.631Z,29.32
2018-07-10T16:33:31.897Z,29.29
2018-07-10T16:36:05.028Z,29.63
2018-07-10T16:38:36.711Z,29.43
2018-07-10T16:41:14.380Z,29.23
2018-07-10T16:43:45.934Z,29.12
2018-07-10T16:46:23.375Z,28.96
2018-07-10T16:49:34.209Z,28.94
2018-07-10T16:52:26.387Z,28.71
2018-07-10T16:54:57.421Z,28.84
2018-07-10T16:57:28.398Z,28.64
2018-07-10T16:59:59.203Z,28.82
2018-07-10T17:02:30.511Z,28.75
2018-07-10T17:05:02.821Z,28.39
2018-07-10T17:07:34.019Z,28.53
2018-07-10T17:10:04.900Z,28.69
2018-07-10T17:12:35.722Z,28.66
2018-07-10T17:15:06.448Z,28.73
2018-07-10T17:17:36.945Z,28.45
2018-07-10T17:20:12.146Z,28.52
2018-07-10T17:22:44.930Z,28.32
2018-07-10T17:25:16.478Z,28.43
2018-07-10T17:27:49.785Z,28.49
2018-07-10T17:30:20.674Z,28.40
2018-07-10T17:32:51.499Z,28.21
2018-07-10T17:35:22.486Z,28.40
2018-07-10T17:37:54.781Z,28.26
2018-07-10T17:40:26.163Z,28.16
2018-07-10T17:42:57.041Z,28.09
2018-07-10T17:45:28.004Z,28.03
2018-07-10T17:48:00.526Z,27.94
2018-07-10T17:50:33.098Z,27.88
2018-07-10T17:53:04.430Z,27.96
2018-07-10T17:55:36.965Z,27.84
2018-07-10T17:58:08.518Z,27.96
2018-07-10T18:00:40.069Z,27.79
2018-07-10T18:03:11.072Z,27.65
2018-07-10T18:05:42.465Z,27.49
2018-07-10T18:08:14.248Z,27.42
2018-07-10T18:10:47.930Z,27.29
2018-07-10T18:13:22.931Z,27.20
2018-07-10T18:15:55.352Z,27.15
2018-07-10T18:18:26.729Z,27.15
2018-07-10T18:21:00.091Z,27.06
2018-07-10T18:23:33.099Z,27.02
2018-07-10T18:26:06.098Z,26.97
2018-07-10T18:28:39.721Z,26.90
2018-07-10T18:31:11.574Z,26.81
2018-07-10T18:33:43.234Z,26.66
2018-07-10T18:36:15.579Z,26.41
2018-07-10T18:38:48.765Z,26.29
2018-07-10T18:41:21.069Z,26.19
2018-07-10T18:43:52.120Z,26.07
2018-07-10T18:46:24.315Z,25.95
2018-07-10T18:48:56.612Z,25.84
2018-07-10T18:51:30.126Z,25.80
2018-07-10T18:54:05.602Z,25.73
2018-07-10T18:56:38.953Z,25.60
2018-07-10T18:59:13.905Z,25.47
2018-07-10T19:02:00.750Z,25.42
2018-07-10T19:05:09.678Z,25.38
2018-07-10T19:07:43.752Z,25.25
2018-07-10T19:10:16.270Z,25.21
2018-07-10T19:12:49.583Z,25.16
2018-07-10T19:15:23.816Z,25.21
2018-07-10T19:17:55.930Z,25.23
2018-07-10T19:20:30.463Z,25.18
2018-07-10T19:23:17.482Z,25.09
2018-07-10T19:25:49.739Z,24.95
2018-07-10T19:28:22.758Z,24.84
2018-07-10T19:31:12.483Z,24.72
2018-07-10T19:33:47.448Z,24.65
2018-07-10T19:36:19.433Z,24.56
2018-07-10T19:38:51.560Z,24.36
2018-07-10T19:41:24.897Z,24.23
2018-07-10T19:43:58.627Z,24.22
2018-07-10T19:46:33.135Z,24.08
2018-07-10T19:49:08.608Z,24.05
2018-07-10T19:51:43.052Z,24.13
2018-07-10T19:54:19.369Z,24.12
2018-07-10T19:56:52.483Z,24.21
2018-07-10T19:59:24.688Z,24.34
2018-07-10T20:02:00.330Z,24.34
2018-07-10T20:04:54.355Z,24.33
2018-07-10T20:07:30.843Z,24.33
2018-07-10T20:10:13.341Z,24.35
2018-07-10T20:13:52.549Z,24.34
2018-07-10T20:16:40.302Z,24.13
2018-07-10T20:19:34.717Z,24.04
2018-07-10T20:24:22.870Z,23.81
2018-07-10T20:27:08.491Z,23.72
2018-07-10T20:32:00.484Z,23.70
2018-07-10T20:34:57.629Z,23.71
2018-07-10T20:37:32.283Z,23.73
2018-07-10T20:40:05.382Z,23.66
2018-07-10T20:42:45.467Z,23.57
2018-07-10T20:45:17.754Z,23.53
2018-07-10T20:47:54.559Z,23.44
2018-07-10T20:51:11.262Z,23.39
2018-07-10T20:54:28.303Z,23.18
2018-07-10T20:58:13.609Z,22.95
2018-07-10T21:01:16.448Z,22.91
2018-07-10T21:03:53.215Z,22.89
2018-07-10T21:06:51.813Z,22.82
2018-07-10T21:09:28.805Z,22.88
2018-07-10T21:12:16.257Z,23.03
2018-07-10T21:16:25.211Z,23.03
2018-07-10T21:20:12.778Z,22.92
2018-07-10T21:23:00.699Z,22.80
2018-07-10T21:25:58.607Z,22.79
2018-07-10T21:28:46.764Z,22.82
2018-07-10T21:31:42.419Z,22.86
2018-07-10T21:34:23.224Z,22.90
2018-07-10T21:37:08.165Z,22.86
2018-07-10T21:41:54.391Z,22.80
2018-07-10T21:44:44.588Z,22.64
2018-07-10T21:48:28.755Z,22.61
2018-07-10T21:50:59.826Z,22.67
2018-07-10T21:53:30.866Z,22.71
2018-07-10T21:56:02.359Z,22.66
2018-07-10T21:58:33.924Z,22.63
2018-07-10T22:01:52.185Z,22.71
2018-07-10T22:04:41.440Z,22.74
2018-07-10T22:07:15.986Z,22.65
2018-07-10T22:09:47.136Z,22.55
2018-07-10T22:12:20.954Z,22.48
2018-07-10T22:14:51.985Z,22.53
2018-07-10T22:17:25.878Z,22.43
2018-07-10T22:19:59.073Z,22.37
2018-07-10T22:22:33.761Z,22.26
2018-07-10T22:25:08.579Z,22.16
2018-07-10T22:27:41.738Z,22.03
2018-07-10T22:30:21.691Z,22.04
2018-07-10T22:33:04.424Z,22.20
2018-07-10T22:35:35.369Z,22.44
2018-07-10T22:38:07.170Z,22.44
2018-07-10T22:40:37.877Z,22.45
2018-07-10T22:43:08.525Z,22.60
2018-07-10T22:45:39.748Z,22.74
2018-07-10T22:48:11.052Z,22.86
2018-07-10T22:50:41.405Z,22.83
2018-07-10T22:53:12.165Z,22.81
2018-07-10T22:55:42.926Z,22.81
2018-07-10T22:58:13.949Z,22.82
2018-07-10T23:00:44.790Z,22.79
2018-07-10T23:03:22.455Z,22.79
2018-07-10T23:05:54.046Z,22.84
2018-07-10T23:08:31.701Z,22.83
2018-07-10T23:11:04.761Z,22.81
2018-07-10T23:13:42.516Z,22.79
2018-07-10T23:16:13.550Z,22.73
2018-07-10T23:18:45.821Z,22.66
2018-07-10T23:21:18.356Z,22.63
2018-07-10T23:23:50.508Z,22.68
2018-07-10T23:26:21.763Z,22.60
2018-07-10T23:28:55.093Z,22.54
2018-07-10T23:31:30.244Z,22.46
2018-07-10T23:34:17.951Z,22.49
2018-07-10T23:37:01.703Z,22.50
2018-07-10T23:39:49.091Z,22.37
2018-07-10T23:42:37.626Z,22.30
2018-07-10T23:45:20.541Z,22.26
2018-07-10T23:47:55.198Z,22.12
2018-07-10T23:50:31.009Z,22.14
2018-07-10T23:54:08.891Z,21.99
2018-07-10T23:56:39.172Z,21.67
2018-07-10T23:59:09.956Z,21.60
